Time;durP1;ratioP1;P1;durP2;ratioP2;P2;SDS_P1;SDS_P2;PMS_P1;PMS_P2;Temp;Humidity;BMP_temperature;BMP_pressure;BME280_temperature;BME280_humidity;BME280_pressure;Samples;Min_cycle;Max_cycle;Signal;HPM_P1;HPM_P2
2024/01/11 00:02:17;;;;;;;40.05;17.98;;;;;;;;;;5022565;28;20378;-87
2024/01/11 00:04:43;;;;;;;43.63;19.97;;;;;;;;;;5022357;28;20392;-87
2024/01/11 00:07:09;;;;;;;40.33;18.27;;;;;;;;;;5037638;28;20040;-87
2024/01/11 00:09:41;;;;;;;42.97;19.27;;;;;;;;;;5015471;28;20531;-88
2024/01/11 00:12:07;;;;;;;40.10;18.40;;;;;;;;;;5012109;28;20065;-87
2024/01/11 00:14:35;;;;;;;38.10;17.40;;;;;;;;;;5036457;28;20523;-86
2024/01/11 00:17:00;;;;;;;39.03;18.10;;;;;;;;;;5003785;28;20033;-87
2024/01/11 00:19:32;;;;;;;39.10;17.88;;;;;;;;;;5000229;28;20029;-88
2024/01/11 00:22:00;;;;;;;37.22;17.00;;;;;;;;;;5032415;28;20033;-87
2024/01/11 00:24:26;;;;;;;35.83;17.05;;;;;;;;;;5032969;28;20025;-88
2024/01/11 00:26:51;;;;;;;33.53;15.88;;;;;;;;;;5009857;28;20095;-87
2024/01/11 00:29:16;;;;;;;28.75;14.35;;;;;;;;;;5033189;28;20111;-87
2024/01/11 00:31:42;;;;;;;35.17;15.77;;;;;;;;;;5024146;28;20400;-88
2024/01/11 00:34:07;;;;;;;32.63;14.70;;;;;;;;;;5027384;28;20049;-88
2024/01/11 00:36:46;;;;;;;31.35;14.55;;;;;;;;;;5013837;28;20040;-88
2024/01/11 00:39:14;;;;;;;31.20;15.55;;;;;;;;;;5036461;28;20037;-89
2024/01/11 00:41:40;;;;;;;29.88;14.05;;;;;;;;;;5018321;28;20041;-86
2024/01/11 00:44:07;;;;;;;30.83;14.32;;;;;;;;;;5035641;28;20036;-87
2024/01/11 00:46:32;;;;;;;30.25;14.10;;;;;;;;;;5031893;28;20572;-86
2024/01/11 00:48:58;;;;;;;30.15;14.18;;;;;;;;;;5036493;28;20032;-88
2024/01/11 00:51:23;;;;;;;29.02;13.45;;;;;;;;;;5020896;28;20025;-86
2024/01/11 00:53:49;;;;;;;24.08;12.25;;;;;;;;;;5023162;28;20045;-87
2024/01/11 00:56:18;;;;;;;25.55;12.07;;;;;;;;;;5001632;28;20037;-88
2024/01/11 00:58:43;;;;;;;24.67;10.90;;;;;;;;;;5029610;28;20037;-87
2024/01/11 01:01:09;;;;;;;25.50;11.73;;;;;;;;;;5038147;28;20041;-88
2024/01/11 01:03:35;;;;;;;28.23;12.38;;;;;;;;;;5039095;28;20029;-85
2024/01/11 01:06:20;;;;;;;27.58;12.85;;;;;;;;;;5039197;28;20037;-88
2024/01/11 01:08:46;;;;;;;25.38;12.40;;;;;;;;;;4982383;28;20517;-87
2024/01/11 01:11:11;;;;;;;25.92;13.10;;;;;;;;;;4964776;28;20098;-89
2024/01/11 01:13:36;;;;;;;29.20;13.82;;;;;;;;;;4982322;28;20042;-88
2024/01/11 01:16:05;;;;;;;28.42;13.45;;;;;;;;;;4971632;28;20202;-89
2024/01/11 01:18:31;;;;;;;29.27;14.48;;;;;;;;;;4959974;28;20465;-88
2024/01/11 01:20:56;;;;;;;28.42;12.45;;;;;;;;;;4948196;28;20038;-88
2024/01/11 01:23:22;;;;;;;24.17;11.45;;;;;;;;;;4972865;28;20043;-88
2024/01/11 01:25:48;;;;;;;26.65;11.45;;;;;;;;;;4961551;28;20702;-87
2024/01/11 01:28:13;;;;;;;23.45;11.52;;;;;;;;;;4944305;28;20045;-88
2024/01/11 01:30:39;;;;;;;24.90;11.43;;;;;;;;;;4956385;28;20497;-87
2024/01/11 01:33:04;;;;;;;28.17;11.82;;;;;;;;;;4964601;28;20046;-89
2024/01/11 01:35:30;;;;;;;26.85;11.95;;;;;;;;;;4955066;28;20038;-88
2024/01/11 01:37:58;;;;;;;22.17;10.32;;;;;;;;;;4962369;28;20046;-87
2024/01/11 01:40:24;;;;;;;23.80;11.25;;;;;;;;;;4970599;28;20470;-88
2024/01/11 01:42:50;;;;;;;27.40;11.60;;;;;;;;;;4964632;28;20046;-86
2024/01/11 01:45:23;;;;;;;28.55;12.52;;;;;;;;;;4961504;28;20037;-89
2024/01/11 01:47:48;;;;;;;27.13;12.00;;;;;;;;;;5008572;28;20128;-89
2024/01/11 01:50:14;;;;;;;29.42;11.77;;;;;;;;;;5029483;28;20394;-90
2024/01/11 01:52:40;;;;;;;24.02;10.95;;;;;;;;;;5019106;28;20033;-89
2024/01/11 01:55:07;;;;;;;22.85;11.05;;;;;;;;;;5028948;28;20091;-88
2024/01/11 01:57:39;;;;;;;22.85;10.57;;;;;;;;;;5010641;28;20036;-87
2024/01/11 02:00:05;;;;;;;19.40;9.88;;;;;;;;;;5028290;28;20112;-87
2024/01/11 02:02:31;;;;;;;21.42;10.05;;;;;;;;;;5040884;28;20038;-88
2024/01/11 02:04:56;;;;;;;22.60;10.32;;;;;;;;;;5026121;28;20037;-87
2024/01/11 02:07:23;;;;;;;16.45;8.27;;;;;;;;;;5019282;28;20040;-88
2024/01/11 02:09:52;;;;;;;21.27;9.48;;;;;;;;;;5024706;28;20083;-88
2024/01/11 02:12:27;;;;;;;21.00;9.45;;;;;;;;;;5029306;28;20037;-88
2024/01/11 02:15:03;;;;;;;20.83;9.52;;;;;;;;;;5011693;28;20106;-87
2024/01/11 02:17:34;;;;;;;17.30;8.68;;;;;;;;;;4979937;28;20029;-87
2024/01/11 02:20:04;;;;;;;23.42;10.35;;;;;;;;;;5044033;28;20029;-88
2024/01/11 02:22:41;;;;;;;21.23;9.82;;;;;;;;;;4994745;28;20430;-88
2024/01/11 02:25:09;;;;;;;21.75;9.98;;;;;;;;;;5020417;28;20111;-87
2024/01/11 02:27:45;;;;;;;23.75;10.77;;;;;;;;;;5008534;28;20097;-82
2024/01/11 02:30:11;;;;;;;24.92;10.60;;;;;;;;;;5024194;28;20056;-90
2024/01/11 02:32:36;;;;;;;25.58;10.60;;;;;;;;;;5016395;28;20056;-88
2024/01/11 02:35:03;;;;;;;20.40;10.20;;;;;;;;;;5036032;28;20034;-88
2024/01/11 02:37:29;;;;;;;26.35;10.65;;;;;;;;;;5021592;28;20162;-89
2024/01/11 02:39:55;;;;;;;20.58;9.98;;;;;;;;;;5022300;28;20118;-88
2024/01/11 02:42:20;;;;;;;19.10;9.80;;;;;;;;;;4992823;28;20520;-88
2024/01/11 02:44:47;;;;;;;21.77;10.18;;;;;;;;;;5026578;28;20040;-88
2024/01/11 02:47:12;;;;;;;24.00;10.40;;;;;;;;;;5025752;28;20030;-89
2024/01/11 02:49:37;;;;;;;23.20;10.82;;;;;;;;;;4999738;28;20040;-88
2024/01/11 02:52:03;;;;;;;23.58;9.98;;;;;;;;;;5037702;28;20025;-87
2024/01/11 02:54:29;;;;;;;23.95;10.13;;;;;;;;;;5007903;28;20034;-88
2024/01/11 02:56:57;;;;;;;24.33;10.55;;;;;;;;;;5017737;28;20040;-88
2024/01/11 02:59:23;;;;;;;19.05;9.05;;;;;;;;;;5011581;28;20037;-86
2024/01/11 03:01:48;;;;;;;20.38;10.25;;;;;;;;;;5025824;28;20096;-87
2024/01/11 03:04:16;;;;;;;19.90;8.00;;;;;;;;;;5013769;28;20080;-88
2024/01/11 03:06:42;;;;;;;18.63;9.02;;;;;;;;;;5036103;28;20385;-87
2024/01/11 03:09:10;;;;;;;21.42;8.55;;;;;;;;;;5033775;28;20037;-88
2024/01/11 03:11:37;;;;;;;19.30;8.75;;;;;;;;;;5000862;28;20037;-85
2024/01/11 03:14:03;;;;;;;21.63;9.10;;;;;;;;;;5018178;28;20029;-87
2024/01/11 03:16:28;;;;;;;18.02;8.98;;;;;;;;;;5018817;28;20039;-87
2024/01/11 03:18:54;;;;;;;20.25;8.95;;;;;;;;;;5019671;28;20456;-88
2024/01/11 03:21:19;;;;;;;21.42;9.18;;;;;;;;;;5022034;28;20404;-88
2024/01/11 03:23:45;;;;;;;18.52;8.30;;;;;;;;;;5041419;28;20110;-88
2024/01/11 03:26:23;;;;;;;19.67;8.60;;;;;;;;;;5036566;28;20048;-88
2024/01/11 03:28:51;;;;;;;16.30;7.80;;;;;;;;;;5011063;28;20733;-87
2024/01/11 03:31:22;;;;;;;20.25;8.10;;;;;;;;;;5014143;28;20042;-88
2024/01/11 03:33:59;;;;;;;20.05;8.10;;;;;;;;;;5028292;28;20043;-88
2024/01/11 03:36:27;;;;;;;18.83;8.15;;;;;;;;;;5022071;28;20485;-87
2024/01/11 03:38:52;;;;;;;20.50;8.20;;;;;;;;;;5019683;28;20045;-88
2024/01/11 03:41:20;;;;;;;20.13;8.70;;;;;;;;;;5040466;28;20040;-89
2024/01/11 03:43:45;;;;;;;16.02;7.82;;;;;;;;;;4994665;28;20068;-89
2024/01/11 03:46:11;;;;;;;17.13;7.30;;;;;;;;;;5010372;28;20543;-88
2024/01/11 03:48:36;;;;;;;17.98;7.60;;;;;;;;;;5027530;28;20164;-88
2024/01/11 03:51:04;;;;;;;21.00;7.90;;;;;;;;;;5018996;28;20381;-88
2024/01/11 03:53:29;;;;;;;18.10;7.47;;;;;;;;;;5019387;28;20025;-88
2024/01/11 03:55:55;;;;;;;15.45;6.85;;;;;;;;;;5017002;28;20089;-87
2024/01/11 03:58:26;;;;;;;18.52;7.00;;;;;;;;;;5004490;28;20037;-84
2024/01/11 04:00:55;;;;;;;16.48;6.45;;;;;;;;;;5024786;28;20049;-86
2024/01/11 04:03:29;;;;;;;12.93;5.78;;;;;;;;;;5038947;28;20044;-89
2024/01/11 04:05:54;;;;;;;14.70;6.03;;;;;;;;;;5023728;28;20378;-88
2024/01/11 04:08:20;;;;;;;19.10;7.88;;;;;;;;;;5017971;28;20091;-88
2024/01/11 04:10:45;;;;;;;16.73;6.93;;;;;;;;;;5027779;28;20049;-88
2024/01/11 04:13:11;;;;;;;13.90;6.03;;;;;;;;;;5037091;28;20107;-86
2024/01/11 04:15:36;;;;;;;15.75;6.47;;;;;;;;;;5025469;28;20123;-87
2024/01/11 04:18:11;;;;;;;21.50;7.35;;;;;;;;;;5026224;28;20108;-88
2024/01/11 04:20:39;;;;;;;14.02;5.97;;;;;;;;;;5009549;28;20409;-87
2024/01/11 04:23:08;;;;;;;14.63;5.97;;;;;;;;;;5020017;28;20194;-86
2024/01/11 04:25:33;;;;;;;16.10;6.10;;;;;;;;;;5006422;28;20132;-87
2024/01/11 04:27:58;;;;;;;18.55;6.68;;;;;;;;;;5017945;28;20648;-85
2024/01/11 04:30:24;;;;;;;16.92;6.70;;;;;;;;;;5015722;28;20055;-86
2024/01/11 04:32:49;;;;;;;14.85;6.05;;;;;;;;;;5023708;28;20041;-86
2024/01/11 04:35:15;;;;;;;15.25;6.40;;;;;;;;;;5031904;28;20052;-87
2024/01/11 04:37:40;;;;;;;12.95;5.65;;;;;;;;;;5039907;28;20033;-86
2024/01/11 04:40:12;;;;;;;15.30;6.50;;;;;;;;;;5043016;28;20045;-87
2024/01/11 04:42:40;;;;;;;17.17;6.93;;;;;;;;;;5033985;28;20039;-91
2024/01/11 04:45:05;;;;;;;19.83;6.90;;;;;;;;;;5028999;28;20027;-90
2024/01/11 04:47:32;;;;;;;17.90;6.90;;;;;;;;;;5032856;28;20083;-90
2024/01/11 04:50:00;;;;;;;18.27;6.63;;;;;;;;;;5009869;28;20035;-89
2024/01/11 04:52:26;;;;;;;22.60;6.30;;;;;;;;;;5024322;28;20057;-88
2024/01/11 04:54:52;;;;;;;16.33;6.80;;;;;;;;;;5008134;28;20075;-90
2024/01/11 04:57:17;;;;;;;18.00;6.93;;;;;;;;;;5005587;28;20213;-90
2024/01/11 04:59:43;;;;;;;16.30;5.97;;;;;;;;;;5023710;28;20029;-90
2024/01/11 05:02:08;;;;;;;22.48;7.07;;;;;;;;;;5019263;28;20037;-89
2024/01/11 05:04:37;;;;;;;21.95;7.28;;;;;;;;;;5040139;28;20562;-88
2024/01/11 05:07:05;;;;;;;20.38;6.60;;;;;;;;;;5020098;28;20128;-88
2024/01/11 05:09:30;;;;;;;19.85;7.20;;;;;;;;;;5029460;28;20503;-88
2024/01/11 05:11:55;;;;;;;17.88;6.55;;;;;;;;;;5041302;28;20074;-91
2024/01/11 05:14:21;;;;;;;23.10;6.55;;;;;;;;;;5044268;28;20041;-90
2024/01/11 05:16:47;;;;;;;18.17;7.07;;;;;;;;;;5005404;28;20033;-90
2024/01/11 05:19:31;;;;;;;22.67;7.20;;;;;;;;;;5013338;28;20071;-89
2024/01/11 05:22:02;;;;;;;24.27;7.60;;;;;;;;;;4994458;28;20484;-87
2024/01/11 05:24:28;;;;;;;20.83;7.20;;;;;;;;;;5022370;28;20560;-89
2024/01/11 05:26:53;;;;;;;22.60;6.72;;;;;;;;;;5020166;28;20072;-87
2024/01/11 05:29:19;;;;;;;20.80;6.95;;;;;;;;;;5024442;28;20144;-88
2024/01/11 05:31:52;;;;;;;23.98;7.75;;;;;;;;;;5050261;28;20094;-89
2024/01/11 05:34:28;;;;;;;24.40;8.70;;;;;;;;;;5044974;28;20526;-88
2024/01/11 05:36:53;;;;;;;19.60;7.32;;;;;;;;;;5011969;28;20396;-89
2024/01/11 05:39:21;;;;;;;21.23;7.35;;;;;;;;;;5043778;28;20036;-89
2024/01/11 05:41:47;;;;;;;20.10;7.43;;;;;;;;;;4999005;28;20465;-88
2024/01/11 05:44:13;;;;;;;23.50;7.43;;;;;;;;;;5011080;28;20102;-85
2024/01/11 05:46:38;;;;;;;21.02;6.57;;;;;;;;;;5029786;28;20496;-84
2024/01/11 05:49:04;;;;;;;22.27;8.05;;;;;;;;;;5009741;28;20045;-87
2024/01/11 05:51:56;;;;;;;23.95;7.88;;;;;;;;;;5007566;28;20033;-90
2024/01/11 05:54:22;;;;;;;23.80;8.05;;;;;;;;;;5027254;28;20038;-90
2024/01/11 05:56:49;;;;;;;25.33;7.72;;;;;;;;;;5032465;28;20135;-90
2024/01/11 05:59:16;;;;;;;25.95;8.73;;;;;;;;;;5002593;28;20033;-88
2024/01/11 06:01:50;;;;;;;24.83;8.32;;;;;;;;;;5037300;28;20037;-83
2024/01/11 06:04:16;;;;;;;22.85;8.40;;;;;;;;;;5019187;28;20034;-83
2024/01/11 06:06:59;;;;;;;23.60;8.15;;;;;;;;;;5038044;28;20048;-82
2024/01/11 06:09:24;;;;;;;21.15;7.68;;;;;;;;;;5035905;28;20087;-83
2024/01/11 06:11:51;;;;;;;24.75;8.15;;;;;;;;;;5032599;28;20045;-90
2024/01/11 06:14:18;;;;;;;28.77;8.87;;;;;;;;;;5005140;28;20044;-87
2024/01/11 06:16:44;;;;;;;26.70;8.90;;;;;;;;;;5015724;28;20280;-88
2024/01/11 06:19:15;;;;;;;21.30;7.35;;;;;;;;;;5030667;28;20099;-87
2024/01/11 06:21:41;;;;;;;24.92;7.88;;;;;;;;;;5012824;28;20112;-89
2024/01/11 06:24:15;;;;;;;26.20;8.35;;;;;;;;;;5024736;28;20101;-89
2024/01/11 06:26:41;;;;;;;21.67;7.93;;;;;;;;;;5034856;28;20040;-90
2024/01/11 06:29:07;;;;;;;27.50;10.10;;;;;;;;;;5015269;28;20397;-87
2024/01/11 06:31:32;;;;;;;26.20;8.02;;;;;;;;;;5026787;28;20489;-88
2024/01/11 06:33:57;;;;;;;29.73;9.10;;;;;;;;;;5025621;28;20033;-88
2024/01/11 06:36:23;;;;;;;24.75;8.85;;;;;;;;;;5039603;28;20040;-88
2024/01/11 06:38:51;;;;;;;24.65;9.40;;;;;;;;;;5035243;28;20048;-87
2024/01/11 06:41:16;;;;;;;27.48;8.95;;;;;;;;;;5002533;28;20110;-87
2024/01/11 06:43:42;;;;;;;29.85;9.50;;;;;;;;;;5023596;28;20037;-90
2024/01/11 06:46:09;;;;;;;23.08;8.82;;;;;;;;;;5043128;28;20479;-88
2024/01/11 06:48:38;;;;;;;34.05;9.88;;;;;;;;;;5023470;28;20124;-88
2024/01/11 06:51:14;;;;;;;26.75;9.68;;;;;;;;;;5019902;28;20574;-89
2024/01/11 06:53:43;;;;;;;32.00;9.37;;;;;;;;;;5036650;28;20032;-87
2024/01/11 06:56:19;;;;;;;31.17;9.63;;;;;;;;;;5012895;28;20842;-88
2024/01/11 06:58:45;;;;;;;28.42;9.88;;;;;;;;;;4999942;28;20033;-91
2024/01/11 07:01:11;;;;;;;34.75;10.57;;;;;;;;;;5018117;28;20485;-90
2024/01/11 07:03:37;;;;;;;31.58;9.48;;;;;;;;;;5029705;28;20044;-85
2024/01/11 07:06:05;;;;;;;28.10;9.50;;;;;;;;;;5033250;28;20048;-89
2024/01/11 07:08:36;;;;;;;31.25;9.98;;;;;;;;;;5037380;28;20772;-88
2024/01/11 07:11:13;;;;;;;29.10;9.55;;;;;;;;;;5033958;28;20152;-88
2024/01/11 07:13:38;;;;;;;41.30;11.00;;;;;;;;;;5026432;28;20033;-88
2024/01/11 07:16:04;;;;;;;28.23;9.73;;;;;;;;;;5022385;28;20036;-87
2024/01/11 07:18:30;;;;;;;32.95;10.40;;;;;;;;;;5027978;28;20033;-89
2024/01/11 07:20:59;;;;;;;36.20;10.90;;;;;;;;;;5018908;28;20044;-89
2024/01/11 07:23:25;;;;;;;38.80;10.57;;;;;;;;;;5004550;28;20096;-90
2024/01/11 07:25:53;;;;;;;30.80;10.48;;;;;;;;;;5019299;28;20041;-89
2024/01/11 07:28:19;;;;;;;39.40;11.57;;;;;;;;;;4994442;28;20029;-88
2024/01/11 07:30:46;;;;;;;31.58;11.50;;;;;;;;;;5019584;28;20037;-89
2024/01/11 07:33:14;;;;;;;30.33;10.60;;;;;;;;;;5035542;28;20029;-86
2024/01/11 07:35:45;;;;;;;31.67;11.00;;;;;;;;;;5018492;28;20072;-87
2024/01/11 07:38:11;;;;;;;34.25;10.95;;;;;;;;;;5024511;28;20389;-87
2024/01/11 07:40:36;;;;;;;35.00;10.85;;;;;;;;;;5012816;28;20059;-88
2024/01/11 07:43:03;;;;;;;37.38;11.65;;;;;;;;;;5031199;28;20091;-88
2024/01/11 07:45:30;;;;;;;32.50;11.30;;;;;;;;;;5036056;28;20037;-88
2024/01/11 07:47:55;;;;;;;33.95;10.52;;;;;;;;;;5018106;28;20099;-88
2024/01/11 07:50:20;;;;;;;37.13;11.90;;;;;;;;;;5025463;28;20500;-87
2024/01/11 07:52:46;;;;;;;39.40;11.27;;;;;;;;;;5000156;28;20029;-88
2024/01/11 07:55:12;;;;;;;40.58;12.48;;;;;;;;;;5031917;28;20022;-87
2024/01/11 07:57:39;;;;;;;35.85;11.98;;;;;;;;;;5028678;28;20044;-87
2024/01/11 08:00:08;;;;;;;32.35;11.57;;;;;;;;;;5027004;28;20037;-88
2024/01/11 08:02:34;;;;;;;35.28;11.75;;;;;;;;;;4999580;28;20512;-89
2024/01/11 08:05:03;;;;;;;29.80;11.18;;;;;;;;;;5027002;28;20140;-88
2024/01/11 08:07:42;;;;;;;39.60;11.80;;;;;;;;;;5007098;28;20473;-88
2024/01/11 08:10:11;;;;;;;36.42;12.32;;;;;;;;;;4997858;28;20527;-87
2024/01/11 08:12:37;;;;;;;31.48;11.65;;;;;;;;;;5018650;28;20029;-88
2024/01/11 08:15:03;;;;;;;34.65;11.82;;;;;;;;;;5027181;28;20044;-86
2024/01/11 08:17:29;;;;;;;32.90;11.32;;;;;;;;;;5027543;28;20477;-89
2024/01/11 08:20:09;;;;;;;31.58;11.40;;;;;;;;;;5029424;28;20040;-90
2024/01/11 08:22:36;;;;;;;38.17;11.98;;;;;;;;;;5037778;28;20035;-87
2024/01/11 08:25:04;;;;;;;32.38;11.57;;;;;;;;;;5034830;28;20044;-89
2024/01/11 08:27:31;;;;;;;36.08;11.82;;;;;;;;;;5032353;28;20033;-89
2024/01/11 08:29:56;;;;;;;30.90;11.20;;;;;;;;;;5036662;28;20045;-87
2024/01/11 08:32:22;;;;;;;34.30;11.88;;;;;;;;;;5026396;28;20029;-90
2024/01/11 08:34:47;;;;;;;33.28;11.57;;;;;;;;;;5022776;28;20091;-91
2024/01/11 08:37:14;;;;;;;39.95;12.98;;;;;;;;;;5036573;28;20036;-88
2024/01/11 08:39:39;;;;;;;35.63;12.23;;;;;;;;;;5038915;28;20048;-89
2024/01/11 08:42:05;;;;;;;35.50;12.25;;;;;;;;;;5018766;28;20371;-89
2024/01/11 08:44:30;;;;;;;42.03;12.07;;;;;;;;;;5035884;28;20041;-88
2024/01/11 08:47:03;;;;;;;35.15;12.05;;;;;;;;;;5025043;28;20408;-90
2024/01/11 08:49:28;;;;;;;34.25;11.52;;;;;;;;;;5020979;28;20125;-90
2024/01/11 08:51:54;;;;;;;35.80;11.45;;;;;;;;;;5034255;28;20120;-89
2024/01/11 08:54:21;;;;;;;34.35;11.98;;;;;;;;;;5013038;28;20063;-90
2024/01/11 08:56:47;;;;;;;36.10;12.18;;;;;;;;;;4995615;28;20041;-90
2024/01/11 08:59:12;;;;;;;34.47;12.05;;;;;;;;;;5025202;28;20038;-88
2024/01/11 09:01:39;;;;;;;33.83;12.30;;;;;;;;;;5014577;28;20045;-89
2024/01/11 09:04:05;;;;;;;35.97;12.13;;;;;;;;;;5025687;28;20040;-88
2024/01/11 09:06:30;;;;;;;38.40;12.93;;;;;;;;;;5007061;28;20034;-90
2024/01/11 09:08:56;;;;;;;31.00;11.20;;;;;;;;;;5024893;28;20041;-90
2024/01/11 09:11:34;;;;;;;;;;;;;;;;;;;;;
2024/01/11 09:13:59;;;;;;;32.80;11.60;;;;;;;;;;5019065;28;20079;-89
2024/01/11 09:16:25;;;;;;;37.58;13.98;;;;;;;;;;5021056;28;20033;-87
2024/01/11 09:18:51;;;;;;;41.65;13.18;;;;;;;;;;5039631;28;20041;-89
2024/01/11 09:21:16;;;;;;;35.63;12.77;;;;;;;;;;5029399;28;20038;-89
2024/01/11 09:23:42;;;;;;;37.45;13.38;;;;;;;;;;5040685;28;20036;-88
2024/01/11 09:26:07;;;;;;;42.00;15.07;;;;;;;;;;5031253;28;20033;-88
2024/01/11 09:28:36;;;;;;;36.97;12.70;;;;;;;;;;5039624;28;20034;-87
2024/01/11 09:31:01;;;;;;;37.97;13.82;;;;;;;;;;5029420;28;20105;-87
2024/01/11 09:33:28;;;;;;;37.55;12.82;;;;;;;;;;5028524;28;20044;-86
2024/01/11 09:35:56;;;;;;;38.83;13.43;;;;;;;;;;5024018;28;20811;-87
2024/01/11 09:38:33;;;;;;;37.05;13.52;;;;;;;;;;5035721;28;20037;-87
2024/01/11 09:41:10;;;;;;;37.75;13.32;;;;;;;;;;5029307;28;20057;-88
2024/01/11 09:43:35;;;;;;;38.88;13.18;;;;;;;;;;5030780;28;20455;-88
2024/01/11 09:46:05;;;;;;;40.55;13.55;;;;;;;;;;5029282;28;20049;-88
2024/01/11 09:48:43;;;;;;;39.92;13.55;;;;;;;;;;5024174;28;20433;-87
2024/01/11 09:51:13;;;;;;;40.72;14.20;;;;;;;;;;5006552;28;20044;-88
2024/01/11 09:53:39;;;;;;;38.60;13.50;;;;;;;;;;5007094;28;20040;-89
2024/01/11 09:56:09;;;;;;;35.17;13.25;;;;;;;;;;5028746;28;20034;-87
2024/01/11 09:58:38;;;;;;;38.00;13.57;;;;;;;;;;5027841;28;20045;-88
2024/01/11 10:01:09;;;;;;;39.83;13.80;;;;;;;;;;5011375;28;20084;-87
2024/01/11 10:03:34;;;;;;;36.42;13.07;;;;;;;;;;5032893;28;20054;-88
2024/01/11 10:06:01;;;;;;;35.70;13.02;;;;;;;;;;5007141;28;20029;-87
2024/01/11 10:08:39;;;;;;;38.85;14.48;;;;;;;;;;5021888;28;20064;-86
2024/01/11 10:11:06;;;;;;;44.28;14.63;;;;;;;;;;5036252;28;20747;-85
2024/01/11 10:13:34;;;;;;;47.33;15.30;;;;;;;;;;5012728;28;20033;-86
2024/01/11 10:16:13;;;;;;;40.20;14.38;;;;;;;;;;5022963;28;20520;-89
2024/01/11 10:18:39;;;;;;;40.63;14.25;;;;;;;;;;5014616;28;20417;-86
2024/01/11 10:21:09;;;;;;;41.35;14.73;;;;;;;;;;5041806;28;20045;-85
2024/01/11 10:23:35;;;;;;;43.08;13.55;;;;;;;;;;5023512;28;20523;-86
2024/01/11 10:26:02;;;;;;;40.90;13.77;;;;;;;;;;5038212;28;20028;-85
2024/01/11 10:28:37;;;;;;;43.72;14.10;;;;;;;;;;5038560;28;20536;-85
2024/01/11 10:31:09;;;;;;;39.38;13.75;;;;;;;;;;5023489;28;20037;-87
2024/01/11 10:33:35;;;;;;;39.75;13.20;;;;;;;;;;5021500;28;20475;-87
2024/01/11 10:36:04;;;;;;;38.53;14.77;;;;;;;;;;5018595;28;20420;-87
2024/01/11 10:38:33;;;;;;;39.90;13.23;;;;;;;;;;5024634;28;20675;-86
2024/01/11 10:41:00;;;;;;;40.38;14.07;;;;;;;;;;5023805;28;20086;-90
2024/01/11 10:43:27;;;;;;;43.22;14.40;;;;;;;;;;5033787;28;20450;-87
2024/01/11 10:45:56;;;;;;;42.60;14.30;;;;;;;;;;5021364;28;20127;-87
2024/01/11 10:48:22;;;;;;;37.03;12.93;;;;;;;;;;5008042;28;20319;-87
2024/01/11 10:50:54;;;;;;;40.80;13.45;;;;;;;;;;5026177;28;20646;-87
2024/01/11 10:53:47;;;;;;;40.88;14.20;;;;;;;;;;5040776;28;20048;-87
2024/01/11 10:56:21;;;;;;;43.65;14.52;;;;;;;;;;5019362;28;20037;-86
2024/01/11 10:58:47;;;;;;;39.05;14.48;;;;;;;;;;5039002;28;20045;-87
2024/01/11 11:01:16;;;;;;;40.05;14.27;;;;;;;;;;5018848;28;20446;-86
2024/01/11 11:03:43;;;;;;;39.08;14.02;;;;;;;;;;5012107;28;20052;-87
2024/01/11 11:06:09;;;;;;;41.22;14.18;;;;;;;;;;5036099;28;20574;-87
2024/01/11 11:08:36;;;;;;;41.45;14.50;;;;;;;;;;5038132;28;20025;-87
2024/01/11 11:11:05;;;;;;;40.17;14.07;;;;;;;;;;5001873;28;20048;-88
2024/01/11 11:13:34;;;;;;;38.42;12.85;;;;;;;;;;5022414;28;20030;-86
2024/01/11 11:16:52;;;;;;;42.97;13.02;;;;;;;;;;5001452;28;20044;-88
2024/01/11 11:19:32;;;;;;;40.20;13.85;;;;;;;;;;4952568;28;20047;-88
2024/01/11 11:21:58;;;;;;;36.22;13.27;;;;;;;;;;5025074;28;20068;-86
2024/01/11 11:24:23;;;;;;;40.30;14.32;;;;;;;;;;5031692;28;20029;-88
2024/01/11 11:26:49;;;;;;;39.47;13.85;;;;;;;;;;4999991;28;20037;-86
2024/01/11 11:29:15;;;;;;;40.22;13.48;;;;;;;;;;5027318;28;20033;-87
2024/01/11 11:31:53;;;;;;;41.75;13.80;;;;;;;;;;5033820;28;20049;-87
2024/01/11 11:34:52;;;;;;;37.67;13.55;;;;;;;;;;5041509;28;20094;-86
2024/01/11 11:37:29;;;;;;;41.92;13.50;;;;;;;;;;5015975;28;20037;-86
2024/01/11 11:39:55;;;;;;;41.85;14.05;;;;;;;;;;5027506;28;20099;-87
2024/01/11 11:42:23;;;;;;;47.95;13.88;;;;;;;;;;5037696;28;20049;-85
2024/01/11 11:44:51;;;;;;;41.15;13.18;;;;;;;;;;5037739;28;20041;-87
2024/01/11 11:47:23;;;;;;;48.25;17.67;;;;;;;;;;5035300;28;20136;-87
2024/01/11 11:50:07;;;;;;;40.72;13.85;;;;;;;;;;5038200;28;20124;-86
2024/01/11 11:52:39;;;;;;;42.60;14.82;;;;;;;;;;5027740;28;20036;-87
2024/01/11 11:55:09;;;;;;;47.30;15.05;;;;;;;;;;5000827;28;20029;-87
2024/01/11 11:57:35;;;;;;;45.60;14.73;;;;;;;;;;5018307;28;20242;-86
2024/01/11 12:00:05;;;;;;;44.42;14.98;;;;;;;;;;5038915;28;20041;-86
2024/01/11 12:02:30;;;;;;;43.83;14.80;;;;;;;;;;5010102;28;20607;-88
2024/01/11 12:04:56;;;;;;;50.00;16.73;;;;;;;;;;5025964;28;20069;-86
2024/01/11 12:07:24;;;;;;;50.28;15.25;;;;;;;;;;5035956;28;20108;-88
2024/01/11 12:09:52;;;;;;;49.78;15.70;;;;;;;;;;5026052;28;20098;-87
2024/01/11 12:12:20;;;;;;;48.17;14.75;;;;;;;;;;5033189;28;20445;-87
2024/01/11 12:14:46;;;;;;;48.05;16.27;;;;;;;;;;5022162;28;20119;-84
2024/01/11 12:17:11;;;;;;;48.47;15.38;;;;;;;;;;5013652;28;20056;-86
2024/01/11 12:19:37;;;;;;;46.00;14.57;;;;;;;;;;5041804;28;20505;-86
2024/01/11 12:22:03;;;;;;;50.83;16.15;;;;;;;;;;5027021;28;20442;-85
2024/01/11 12:24:30;;;;;;;49.83;16.40;;;;;;;;;;5001971;28;20133;-88
2024/01/11 12:26:57;;;;;;;46.47;14.20;;;;;;;;;;5025328;28;20044;-86
2024/01/11 12:29:23;;;;;;;47.38;15.10;;;;;;;;;;5016768;28;20346;-86
2024/01/11 12:31:58;;;;;;;47.50;15.13;;;;;;;;;;5021749;28;20033;-86
2024/01/11 12:34:25;;;;;;;45.67;15.35;;;;;;;;;;5003971;28;20033;-87
2024/01/11 12:36:52;;;;;;;46.00;15.68;;;;;;;;;;5008253;28;20041;-87
2024/01/11 12:39:50;;;;;;;43.35;16.42;;;;;;;;;;5035634;28;20095;-87
2024/01/11 12:42:15;;;;;;;47.17;15.70;;;;;;;;;;5033239;28;20454;-87
2024/01/11 12:44:41;;;;;;;46.00;15.88;;;;;;;;;;5034399;28;20083;-86
2024/01/11 12:47:12;;;;;;;49.20;16.25;;;;;;;;;;5026584;28;20049;-87
2024/01/11 12:49:44;;;;;;;49.42;15.95;;;;;;;;;;4999589;28;20041;-85
2024/01/11 12:52:19;;;;;;;47.63;16.05;;;;;;;;;;5041087;28;20511;-87
2024/01/11 12:54:45;;;;;;;45.85;15.13;;;;;;;;;;5038076;28;20084;-86
2024/01/11 12:57:26;;;;;;;48.78;15.75;;;;;;;;;;5004813;28;20038;-86
2024/01/11 12:59:53;;;;;;;47.63;16.35;;;;;;;;;;5038743;28;20203;-86
2024/01/11 13:02:23;;;;;;;44.90;14.75;;;;;;;;;;5013316;28;20075;-85
2024/01/11 13:04:50;;;;;;;48.03;15.25;;;;;;;;;;5028763;28;20120;-86
2024/01/11 13:07:16;;;;;;;45.08;16.20;;;;;;;;;;5036764;28;20033;-85
2024/01/11 13:09:41;;;;;;;39.67;14.82;;;;;;;;;;5041495;28;20457;-86
2024/01/11 13:12:07;;;;;;;46.42;16.33;;;;;;;;;;5015612;28;20029;-86
2024/01/11 13:14:33;;;;;;;45.90;16.45;;;;;;;;;;5007391;28;20036;-86
2024/01/11 13:16:59;;;;;;;49.28;15.77;;;;;;;;;;5040414;28;20068;-85
2024/01/11 13:19:25;;;;;;;47.80;17.05;;;;;;;;;;5010858;28;20501;-87
2024/01/11 13:21:50;;;;;;;51.85;16.02;;;;;;;;;;5031991;28;20094;-87
2024/01/11 13:24:16;;;;;;;44.85;15.85;;;;;;;;;;5027411;28;20048;-88
2024/01/11 13:26:41;;;;;;;48.90;15.90;;;;;;;;;;5036541;28;20033;-87
2024/01/11 13:29:07;;;;;;;43.40;15.38;;;;;;;;;;5022797;28;20047;-86
2024/01/11 13:31:32;;;;;;;48.28;16.15;;;;;;;;;;5037361;28;20045;-86
2024/01/11 13:33:58;;;;;;;45.28;14.88;;;;;;;;;;5020389;28;20512;-85
2024/01/11 13:36:24;;;;;;;46.05;15.07;;;;;;;;;;5028087;28;20103;-86
2024/01/11 13:38:51;;;;;;;49.58;16.15;;;;;;;;;;5035065;28;20488;-87
2024/01/11 13:41:25;;;;;;;43.08;15.35;;;;;;;;;;5036270;28;20108;-86
2024/01/11 13:43:51;;;;;;;48.47;15.73;;;;;;;;;;5027319;28;20079;-87
2024/01/11 13:46:19;;;;;;;47.80;16.00;;;;;;;;;;5012628;28;20543;-86
2024/01/11 13:48:45;;;;;;;46.42;16.25;;;;;;;;;;5028264;28;20039;-88
2024/01/11 13:51:15;;;;;;;46.42;15.70;;;;;;;;;;5006240;28;20423;-85
2024/01/11 13:53:41;;;;;;;43.00;15.68;;;;;;;;;;5029497;28;20057;-86
2024/01/11 13:56:06;;;;;;;43.85;15.30;;;;;;;;;;5017241;28;20029;-86
2024/01/11 13:58:32;;;;;;;45.00;15.82;;;;;;;;;;5031435;28;20401;-86
2024/01/11 14:00:58;;;;;;;48.65;15.98;;;;;;;;;;4992461;28;20041;-85
2024/01/11 14:03:24;;;;;;;55.88;17.88;;;;;;;;;;5015883;28;20044;-86
2024/01/11 14:05:49;;;;;;;49.33;17.25;;;;;;;;;;5026938;28;20041;-85
2024/01/11 14:08:15;;;;;;;43.22;15.90;;;;;;;;;;5019278;28;20377;-86
2024/01/11 14:10:50;;;;;;;42.20;14.40;;;;;;;;;;5020615;28;20255;-88
2024/01/11 14:13:25;;;;;;;41.70;14.38;;;;;;;;;;5042696;28;20037;-85
2024/01/11 14:15:51;;;;;;;40.25;14.75;;;;;;;;;;5003583;28;20076;-85
2024/01/11 14:18:18;;;;;;;43.65;14.73;;;;;;;;;;5040782;28;20076;-86
2024/01/11 14:20:44;;;;;;;41.75;14.75;;;;;;;;;;5038400;28;20032;-87
2024/01/11 14:23:09;;;;;;;43.28;14.85;;;;;;;;;;5027476;28;20508;-86
2024/01/11 14:25:34;;;;;;;45.92;15.38;;;;;;;;;;5022990;28;20041;-87
2024/01/11 14:28:00;;;;;;;40.42;13.90;;;;;;;;;;5032118;28;20041;-86